sensor_id;sensor_type;location;lat;lon;timestamp;P1;durP1;ratioP1;P2;durP2;ratioP2
80241;SDS011;69556;45.004;7.532;2024-01-16T00:00:29;74.78;;;34.10;;
80241;SDS011;69556;45.004;7.532;2024-01-16T00:02:54;68.05;;;34.45;;
80241;SDS011;69556;45.004;7.532;2024-01-16T00:05:19;70.37;;;35.07;;
80241;SDS011;69556;45.004;7.532;2024-01-16T00:07:45;75.53;;;36.27;;
80241;SDS011;69556;45.004;7.532;2024-01-16T00:10:10;72.55;;;35.20;;
80241;SDS011;69556;45.004;7.532;2024-01-16T00:12:36;73.72;;;36.85;;
80241;SDS011;69556;45.004;7.532;2024-01-16T00:15:01;73.07;;;34.63;;
80241;SDS011;69556;45.004;7.532;2024-01-16T00:17:26;68.05;;;35.47;;
80241;SDS011;69556;45.004;7.532;2024-01-16T00:19:52;80.05;;;38.33;;
80241;SDS011;69556;45.004;7.532;2024-01-16T00:22:17;70.43;;;34.20;;
80241;SDS011;69556;45.004;7.532;2024-01-16T00:24:42;66.47;;;33.60;;
80241;SDS011;69556;45.004;7.532;2024-01-16T00:27:08;67.95;;;34.58;;
80241;SDS011;69556;45.004;7.532;2024-01-16T00:29:33;63.10;;;32.40;;
80241;SDS011;69556;45.004;7.532;2024-01-16T00:31:58;72.83;;;34.87;;
80241;SDS011;69556;45.004;7.532;2024-01-16T00:34:23;76.53;;;35.53;;
80241;SDS011;69556;45.004;7.532;2024-01-16T00:36:49;75.07;;;36.50;;
80241;SDS011;69556;45.004;7.532;2024-01-16T00:39:14;77.22;;;36.28;;
80241;SDS011;69556;45.004;7.532;2024-01-16T00:41:40;73.35;;;37.05;;
80241;SDS011;69556;45.004;7.532;2024-01-16T00:44:05;74.07;;;35.53;;
80241;SDS011;69556;45.004;7.532;2024-01-16T00:46:30;73.83;;;35.27;;
80241;SDS011;69556;45.004;7.532;2024-01-16T00:48:56;63.53;;;33.37;;
80241;SDS011;69556;45.004;7.532;2024-01-16T00:51:21;71.28;;;33.63;;
80241;SDS011;69556;45.004;7.532;2024-01-16T00:53:47;67.25;;;33.47;;
80241;SDS011;69556;45.004;7.532;2024-01-16T00:56:12;73.55;;;36.65;;
80241;SDS011;69556;45.004;7.532;2024-01-16T00:58:38;75.30;;;37.50;;
80241;SDS011;69556;45.004;7.532;2024-01-16T01:01:04;71.72;;;38.22;;
80241;SDS011;69556;45.004;7.532;2024-01-16T01:03:29;73.47;;;37.20;;
80241;SDS011;69556;45.004;7.532;2024-01-16T01:05:55;75.00;;;34.93;;
80241;SDS011;69556;45.004;7.532;2024-01-16T01:08:20;70.40;;;35.47;;
80241;SDS011;69556;45.004;7.532;2024-01-16T01:10:46;76.63;;;38.25;;
80241;SDS011;69556;45.004;7.532;2024-01-16T01:13:12;72.90;;;39.22;;
80241;SDS011;69556;45.004;7.532;2024-01-16T01:15:37;64.43;;;34.80;;
80241;SDS011;69556;45.004;7.532;2024-01-16T01:18:03;72.30;;;36.92;;
80241;SDS011;69556;45.004;7.532;2024-01-16T01:20:29;78.88;;;37.63;;
80241;SDS011;69556;45.004;7.532;2024-01-16T01:22:54;83.60;;;39.53;;
80241;SDS011;69556;45.004;7.532;2024-01-16T01:25:19;75.43;;;39.17;;
80241;SDS011;69556;45.004;7.532;2024-01-16T01:27:45;88.80;;;42.65;;
80241;SDS011;69556;45.004;7.532;2024-01-16T01:30:10;78.60;;;41.63;;
80241;SDS011;69556;45.004;7.532;2024-01-16T01:32:36;79.80;;;36.42;;
80241;SDS011;69556;45.004;7.532;2024-01-16T01:35:01;68.15;;;35.33;;
80241;SDS011;69556;45.004;7.532;2024-01-16T01:37:27;77.50;;;38.13;;
80241;SDS011;69556;45.004;7.532;2024-01-16T01:39:53;78.57;;;40.33;;
80241;SDS011;69556;45.004;7.532;2024-01-16T01:42:18;79.03;;;37.42;;
80241;SDS011;69556;45.004;7.532;2024-01-16T01:44:44;71.77;;;36.70;;
80241;SDS011;69556;45.004;7.532;2024-01-16T01:47:09;74.57;;;35.87;;
80241;SDS011;69556;45.004;7.532;2024-01-16T01:49:34;74.47;;;36.72;;
80241;SDS011;69556;45.004;7.532;2024-01-16T01:52:02;71.05;;;35.40;;
80241;SDS011;69556;45.004;7.532;2024-01-16T01:54:28;69.38;;;37.63;;
80241;SDS011;69556;45.004;7.532;2024-01-16T01:56:55;73.07;;;36.10;;
80241;SDS011;69556;45.004;7.532;2024-01-16T01:59:21;68.53;;;35.08;;
80241;SDS011;69556;45.004;7.532;2024-01-16T02:01:48;69.22;;;37.15;;
80241;SDS011;69556;45.004;7.532;2024-01-16T02:04:17;70.35;;;37.05;;
80241;SDS011;69556;45.004;7.532;2024-01-16T02:06:44;72.25;;;34.80;;
80241;SDS011;69556;45.004;7.532;2024-01-16T02:09:10;66.75;;;34.15;;
80241;SDS011;69556;45.004;7.532;2024-01-16T02:11:38;72.03;;;36.65;;
80241;SDS011;69556;45.004;7.532;2024-01-16T02:14:04;71.15;;;35.67;;
80241;SDS011;69556;45.004;7.532;2024-01-16T02:16:34;67.30;;;33.50;;
80241;SDS011;69556;45.004;7.532;2024-01-16T02:19:01;64.53;;;31.75;;
80241;SDS011;69556;45.004;7.532;2024-01-16T02:21:28;67.40;;;32.43;;
80241;SDS011;69556;45.004;7.532;2024-01-16T02:23:56;79.22;;;35.60;;
80241;SDS011;69556;45.004;7.532;2024-01-16T02:26:21;67.75;;;36.95;;
80241;SDS011;69556;45.004;7.532;2024-01-16T02:28:47;71.68;;;36.40;;
80241;SDS011;69556;45.004;7.532;2024-01-16T02:31:12;60.45;;;32.70;;
80241;SDS011;69556;45.004;7.532;2024-01-16T02:33:38;63.42;;;31.30;;
80241;SDS011;69556;45.004;7.532;2024-01-16T02:36:03;68.30;;;32.00;;
80241;SDS011;69556;45.004;7.532;2024-01-16T02:38:29;63.45;;;30.13;;
80241;SDS011;69556;45.004;7.532;2024-01-16T02:40:54;64.20;;;31.45;;
80241;SDS011;69556;45.004;7.532;2024-01-16T02:43:19;60.20;;;31.50;;
80241;SDS011;69556;45.004;7.532;2024-01-16T02:45:45;64.50;;;32.37;;
80241;SDS011;69556;45.004;7.532;2024-01-16T02:48:10;71.70;;;32.43;;
80241;SDS011;69556;45.004;7.532;2024-01-16T02:50:36;57.28;;;29.45;;
80241;SDS011;69556;45.004;7.532;2024-01-16T02:53:02;62.95;;;30.60;;
80241;SDS011;69556;45.004;7.532;2024-01-16T02:55:27;65.85;;;29.75;;
80241;SDS011;69556;45.004;7.532;2024-01-16T02:57:52;60.83;;;27.63;;
80241;SDS011;69556;45.004;7.532;2024-01-16T03:00:18;61.28;;;29.23;;
80241;SDS011;69556;45.004;7.532;2024-01-16T03:02:43;57.88;;;27.05;;
80241;SDS011;69556;45.004;7.532;2024-01-16T03:05:09;54.97;;;26.25;;
80241;SDS011;69556;45.004;7.532;2024-01-16T03:07:35;55.45;;;28.02;;
80241;SDS011;69556;45.004;7.532;2024-01-16T03:10:01;57.03;;;28.58;;
80241;SDS011;69556;45.004;7.532;2024-01-16T03:12:26;68.10;;;30.70;;
80241;SDS011;69556;45.004;7.532;2024-01-16T03:14:52;66.35;;;31.58;;
80241;SDS011;69556;45.004;7.532;2024-01-16T03:17:18;62.05;;;29.90;;
80241;SDS011;69556;45.004;7.532;2024-01-16T03:19:44;63.42;;;30.48;;
80241;SDS011;69556;45.004;7.532;2024-01-16T03:22:09;62.58;;;31.38;;
80241;SDS011;69556;45.004;7.532;2024-01-16T03:24:35;66.95;;;33.47;;
80241;SDS011;69556;45.004;7.532;2024-01-16T03:27:00;70.73;;;32.07;;
80241;SDS011;69556;45.004;7.532;2024-01-16T03:29:26;71.63;;;32.35;;
80241;SDS011;69556;45.004;7.532;2024-01-16T03:31:51;66.87;;;31.87;;
80241;SDS011;69556;45.004;7.532;2024-01-16T03:34:18;73.90;;;36.08;;
80241;SDS011;69556;45.004;7.532;2024-01-16T03:36:43;57.53;;;30.23;;
80241;SDS011;69556;45.004;7.532;2024-01-16T03:39:08;71.63;;;32.30;;
80241;SDS011;69556;45.004;7.532;2024-01-16T03:41:34;64.10;;;33.13;;
80241;SDS011;69556;45.004;7.532;2024-01-16T03:43:59;65.95;;;33.20;;
80241;SDS011;69556;45.004;7.532;2024-01-16T03:46:25;60.38;;;30.27;;
80241;SDS011;69556;45.004;7.532;2024-01-16T03:48:50;70.50;;;33.65;;
80241;SDS011;69556;45.004;7.532;2024-01-16T03:51:16;63.92;;;32.33;;
80241;SDS011;69556;45.004;7.532;2024-01-16T03:53:42;58.10;;;29.92;;
80241;SDS011;69556;45.004;7.532;2024-01-16T03:56:08;64.80;;;33.58;;
80241;SDS011;69556;45.004;7.532;2024-01-16T03:58:33;69.38;;;33.85;;
80241;SDS011;69556;45.004;7.532;2024-01-16T04:00:59;67.88;;;33.20;;
80241;SDS011;69556;45.004;7.532;2024-01-16T04:03:24;57.42;;;31.77;;
80241;SDS011;69556;45.004;7.532;2024-01-16T04:05:50;66.65;;;31.88;;
80241;SDS011;69556;45.004;7.532;2024-01-16T04:08:15;59.15;;;30.35;;
80241;SDS011;69556;45.004;7.532;2024-01-16T04:10:41;64.55;;;30.90;;
80241;SDS011;69556;45.004;7.532;2024-01-16T04:13:07;73.28;;;32.58;;
80241;SDS011;69556;45.004;7.532;2024-01-16T04:15:32;59.50;;;32.13;;
80241;SDS011;69556;45.004;7.532;2024-01-16T04:17:58;60.47;;;31.63;;
80241;SDS011;69556;45.004;7.532;2024-01-16T04:20:24;66.63;;;32.63;;
80241;SDS011;69556;45.004;7.532;2024-01-16T04:22:50;64.10;;;31.90;;
80241;SDS011;69556;45.004;7.532;2024-01-16T04:25:15;65.97;;;32.03;;
80241;SDS011;69556;45.004;7.532;2024-01-16T04:27:41;66.53;;;31.43;;
80241;SDS011;69556;45.004;7.532;2024-01-16T04:30:06;67.07;;;32.33;;
80241;SDS011;69556;45.004;7.532;2024-01-16T04:32:32;66.60;;;33.70;;
80241;SDS011;69556;45.004;7.532;2024-01-16T04:34:57;59.55;;;31.00;;
80241;SDS011;69556;45.004;7.532;2024-01-16T04:37:23;61.72;;;32.55;;
80241;SDS011;69556;45.004;7.532;2024-01-16T04:39:49;61.13;;;32.80;;
80241;SDS011;69556;45.004;7.532;2024-01-16T04:42:14;63.38;;;32.67;;
80241;SDS011;69556;45.004;7.532;2024-01-16T04:44:42;59.80;;;31.05;;
80241;SDS011;69556;45.004;7.532;2024-01-16T04:47:08;61.25;;;29.95;;
80241;SDS011;69556;45.004;7.532;2024-01-16T04:49:33;57.57;;;30.70;;
80241;SDS011;69556;45.004;7.532;2024-01-16T04:51:58;61.50;;;31.83;;
80241;SDS011;69556;45.004;7.532;2024-01-16T04:54:23;52.13;;;25.87;;
80241;SDS011;69556;45.004;7.532;2024-01-16T04:56:49;57.47;;;28.77;;
80241;SDS011;69556;45.004;7.532;2024-01-16T04:59:14;62.80;;;32.23;;
80241;SDS011;69556;45.004;7.532;2024-01-16T05:01:39;54.63;;;28.60;;
80241;SDS011;69556;45.004;7.532;2024-01-16T05:04:05;61.63;;;30.55;;
80241;SDS011;69556;45.004;7.532;2024-01-16T05:06:32;60.00;;;29.75;;
80241;SDS011;69556;45.004;7.532;2024-01-16T05:08:58;59.53;;;30.38;;
80241;SDS011;69556;45.004;7.532;2024-01-16T05:11:23;54.33;;;27.27;;
80241;SDS011;69556;45.004;7.532;2024-01-16T05:13:49;62.95;;;29.15;;
80241;SDS011;69556;45.004;7.532;2024-01-16T05:16:14;65.40;;;28.43;;
80241;SDS011;69556;45.004;7.532;2024-01-16T05:18:43;64.28;;;29.33;;
80241;SDS011;69556;45.004;7.532;2024-01-16T05:21:08;62.35;;;28.92;;
80241;SDS011;69556;45.004;7.532;2024-01-16T05:23:33;62.10;;;30.00;;
80241;SDS011;69556;45.004;7.532;2024-01-16T05:25:59;61.08;;;29.23;;
80241;SDS011;69556;45.004;7.532;2024-01-16T05:28:24;57.27;;;27.13;;
80241;SDS011;69556;45.004;7.532;2024-01-16T05:30:49;59.27;;;29.10;;
80241;SDS011;69556;45.004;7.532;2024-01-16T05:33:15;54.40;;;28.13;;
80241;SDS011;69556;45.004;7.532;2024-01-16T05:35:40;61.13;;;27.38;;
80241;SDS011;69556;45.004;7.532;2024-01-16T05:38:06;63.80;;;29.95;;
80241;SDS011;69556;45.004;7.532;2024-01-16T05:40:31;61.45;;;29.83;;
80241;SDS011;69556;45.004;7.532;2024-01-16T05:42:57;57.38;;;28.25;;
80241;SDS011;69556;45.004;7.532;2024-01-16T05:45:22;63.00;;;30.00;;
80241;SDS011;69556;45.004;7.532;2024-01-16T05:47:47;56.23;;;27.40;;
80241;SDS011;69556;45.004;7.532;2024-01-16T05:50:13;47.43;;;27.53;;
80241;SDS011;69556;45.004;7.532;2024-01-16T05:52:41;57.47;;;25.02;;
80241;SDS011;69556;45.004;7.532;2024-01-16T05:55:07;56.63;;;26.92;;
80241;SDS011;69556;45.004;7.532;2024-01-16T05:57:32;55.10;;;27.88;;
80241;SDS011;69556;45.004;7.532;2024-01-16T05:59:58;49.13;;;26.70;;
80241;SDS011;69556;45.004;7.532;2024-01-16T06:02:24;54.10;;;27.02;;
80241;SDS011;69556;45.004;7.532;2024-01-16T06:04:49;48.35;;;25.90;;
80241;SDS011;69556;45.004;7.532;2024-01-16T06:07:15;53.53;;;26.23;;
80241;SDS011;69556;45.004;7.532;2024-01-16T06:09:40;50.47;;;25.25;;
80241;SDS011;69556;45.004;7.532;2024-01-16T06:12:07;50.80;;;24.92;;
80241;SDS011;69556;45.004;7.532;2024-01-16T06:14:33;50.85;;;23.50;;
80241;SDS011;69556;45.004;7.532;2024-01-16T06:16:59;49.90;;;23.65;;
80241;SDS011;69556;45.004;7.532;2024-01-16T06:19:24;55.05;;;25.92;;
80241;SDS011;69556;45.004;7.532;2024-01-16T06:21:50;68.88;;;32.70;;
80241;SDS011;69556;45.004;7.532;2024-01-16T06:24:15;62.73;;;31.00;;
80241;SDS011;69556;45.004;7.532;2024-01-16T06:26:41;66.32;;;31.83;;
80241;SDS011;69556;45.004;7.532;2024-01-16T06:29:07;61.30;;;28.27;;
80241;SDS011;69556;45.004;7.532;2024-01-16T06:31:32;53.13;;;25.80;;
80241;SDS011;69556;45.004;7.532;2024-01-16T06:34:01;53.03;;;25.63;;
80241;SDS011;69556;45.004;7.532;2024-01-16T06:36:26;50.50;;;22.75;;
80241;SDS011;69556;45.004;7.532;2024-01-16T06:38:51;40.63;;;22.63;;
80241;SDS011;69556;45.004;7.532;2024-01-16T06:41:17;47.67;;;23.00;;
80241;SDS011;69556;45.004;7.532;2024-01-16T06:43:42;54.87;;;24.53;;
80241;SDS011;69556;45.004;7.532;2024-01-16T06:46:07;39.53;;;20.50;;
80241;SDS011;69556;45.004;7.532;2024-01-16T06:48:34;48.60;;;23.42;;
80241;SDS011;69556;45.004;7.532;2024-01-16T06:53:27;43.97;;;22.08;;
80241;SDS011;69556;45.004;7.532;2024-01-16T06:55:53;42.10;;;21.03;;
80241;SDS011;69556;45.004;7.532;2024-01-16T06:58:18;38.13;;;19.65;;
80241;SDS011;69556;45.004;7.532;2024-01-16T07:00:44;48.77;;;20.63;;
80241;SDS011;69556;45.004;7.532;2024-01-16T07:03:11;62.03;;;26.73;;
80241;SDS011;69556;45.004;7.532;2024-01-16T07:05:36;38.47;;;20.83;;
80241;SDS011;69556;45.004;7.532;2024-01-16T07:08:01;49.17;;;21.20;;
80241;SDS011;69556;45.004;7.532;2024-01-16T07:10:27;51.15;;;22.40;;
80241;SDS011;69556;45.004;7.532;2024-01-16T07:12:53;87.10;;;32.03;;
80241;SDS011;69556;45.004;7.532;2024-01-16T07:15:18;70.45;;;27.27;;
80241;SDS011;69556;45.004;7.532;2024-01-16T07:17:44;84.00;;;29.73;;
80241;SDS011;69556;45.004;7.532;2024-01-16T07:20:09;66.75;;;27.02;;
80241;SDS011;69556;45.004;7.532;2024-01-16T07:22:36;69.55;;;29.77;;
80241;SDS011;69556;45.004;7.532;2024-01-16T07:25:04;67.68;;;28.23;;
80241;SDS011;69556;45.004;7.532;2024-01-16T07:27:30;73.43;;;28.10;;
80241;SDS011;69556;45.004;7.532;2024-01-16T07:29:55;53.97;;;25.90;;
80241;SDS011;69556;45.004;7.532;2024-01-16T07:32:21;72.55;;;28.30;;
80241;SDS011;69556;45.004;7.532;2024-01-16T07:34:47;46.13;;;22.42;;
80241;SDS011;69556;45.004;7.532;2024-01-16T07:37:12;43.90;;;21.45;;
80241;SDS011;69556;45.004;7.532;2024-01-16T07:39:38;26.08;;;12.57;;
80241;SDS011;69556;45.004;7.532;2024-01-16T07:42:03;47.92;;;24.58;;
80241;SDS011;69556;45.004;7.532;2024-01-16T07:44:29;39.05;;;20.27;;
80241;SDS011;69556;45.004;7.532;2024-01-16T07:46:54;57.10;;;25.73;;
80241;SDS011;69556;45.004;7.532;2024-01-16T07:49:20;48.90;;;20.97;;
80241;SDS011;69556;45.004;7.532;2024-01-16T07:51:45;60.40;;;19.77;;
80241;SDS011;69556;45.004;7.532;2024-01-16T07:54:10;52.17;;;25.40;;
80241;SDS011;69556;45.004;7.532;2024-01-16T07:56:38;47.65;;;21.92;;
80241;SDS011;69556;45.004;7.532;2024-01-16T07:59:03;40.60;;;21.20;;
80241;SDS011;69556;45.004;7.532;2024-01-16T08:01:29;47.40;;;21.25;;
80241;SDS011;69556;45.004;7.532;2024-01-16T08:03:55;56.70;;;28.98;;
80241;SDS011;69556;45.004;7.532;2024-01-16T08:06:21;39.20;;;19.48;;
80241;SDS011;69556;45.004;7.532;2024-01-16T08:08:47;62.45;;;26.92;;
80241;SDS011;69556;45.004;7.532;2024-01-16T08:11:13;72.70;;;31.30;;
80241;SDS011;69556;45.004;7.532;2024-01-16T08:13:39;69.63;;;30.52;;
80241;SDS011;69556;45.004;7.532;2024-01-16T08:16:04;86.90;;;31.70;;
80241;SDS011;69556;45.004;7.532;2024-01-16T08:18:30;51.28;;;26.83;;
80241;SDS011;69556;45.004;7.532;2024-01-16T08:20:56;59.33;;;29.17;;
80241;SDS011;69556;45.004;7.532;2024-01-16T08:23:22;94.38;;;36.95;;
80241;SDS011;69556;45.004;7.532;2024-01-16T08:25:47;78.32;;;28.98;;
80241;SDS011;69556;45.004;7.532;2024-01-16T08:28:13;82.70;;;33.72;;
80241;SDS011;69556;45.004;7.532;2024-01-16T08:30:39;104.75;;;39.97;;
80241;SDS011;69556;45.004;7.532;2024-01-16T08:33:04;85.60;;;35.45;;
80241;SDS011;69556;45.004;7.532;2024-01-16T08:35:29;91.73;;;37.00;;
80241;SDS011;69556;45.004;7.532;2024-01-16T08:37:55;100.83;;;39.27;;
80241;SDS011;69556;45.004;7.532;2024-01-16T08:40:20;79.17;;;34.27;;
80241;SDS011;69556;45.004;7.532;2024-01-16T08:42:46;81.65;;;32.65;;
80241;SDS011;69556;45.004;7.532;2024-01-16T08:45:19;85.55;;;34.72;;
80241;SDS011;69556;45.004;7.532;2024-01-16T08:47:45;81.13;;;33.67;;
80241;SDS011;69556;45.004;7.532;2024-01-16T08:50:10;93.97;;;37.75;;
80241;SDS011;69556;45.004;7.532;2024-01-16T08:52:35;81.37;;;34.47;;
80241;SDS011;69556;45.004;7.532;2024-01-16T08:55:01;84.47;;;37.93;;
80241;SDS011;69556;45.004;7.532;2024-01-16T08:57:27;88.35;;;34.60;;
80241;SDS011;69556;45.004;7.532;2024-01-16T08:59:52;90.37;;;37.87;;
80241;SDS011;69556;45.004;7.532;2024-01-16T09:02:18;96.32;;;37.65;;
80241;SDS011;69556;45.004;7.532;2024-01-16T09:04:44;82.15;;;39.45;;
80241;SDS011;69556;45.004;7.532;2024-01-16T09:07:10;89.05;;;39.50;;
80241;SDS011;69556;45.004;7.532;2024-01-16T09:09:36;94.93;;;40.75;;
80241;SDS011;69556;45.004;7.532;2024-01-16T09:12:01;93.47;;;39.60;;
80241;SDS011;69556;45.004;7.532;2024-01-16T09:14:28;100.57;;;40.08;;
80241;SDS011;69556;45.004;7.532;2024-01-16T09:16:54;104.07;;;43.20;;
80241;SDS011;69556;45.004;7.532;2024-01-16T09:19:19;91.07;;;39.75;;
80241;SDS011;69556;45.004;7.532;2024-01-16T09:21:44;86.95;;;39.28;;
80241;SDS011;69556;45.004;7.532;2024-01-16T09:24:10;87.93;;;41.83;;
80241;SDS011;69556;45.004;7.532;2024-01-16T09:26:37;83.22;;;38.80;;
80241;SDS011;69556;45.004;7.532;2024-01-16T09:29:03;90.50;;;37.80;;
80241;SDS011;69556;45.004;7.532;2024-01-16T09:31:28;81.65;;;38.30;;
80241;SDS011;69556;45.004;7.532;2024-01-16T09:33:54;81.95;;;40.03;;
80241;SDS011;69556;45.004;7.532;2024-01-16T09:36:21;88.38;;;39.00;;
80241;SDS011;69556;45.004;7.532;2024-01-16T09:38:47;89.20;;;39.00;;
80241;SDS011;69556;45.004;7.532;2024-01-16T09:41:13;80.30;;;40.60;;
80241;SDS011;69556;45.004;7.532;2024-01-16T09:43:38;77.95;;;37.78;;
80241;SDS011;69556;45.004;7.532;2024-01-16T09:46:04;84.45;;;40.25;;
80241;SDS011;69556;45.004;7.532;2024-01-16T09:48:32;82.95;;;40.47;;
80241;SDS011;69556;45.004;7.532;2024-01-16T09:50:58;88.93;;;39.92;;
80241;SDS011;69556;45.004;7.532;2024-01-16T09:53:24;89.68;;;39.72;;
80241;SDS011;69556;45.004;7.532;2024-01-16T09:55:50;91.88;;;43.97;;
80241;SDS011;69556;45.004;7.532;2024-01-16T09:58:18;89.05;;;43.13;;
80241;SDS011;69556;45.004;7.532;2024-01-16T10:00:45;97.53;;;42.10;;
80241;SDS011;69556;45.004;7.532;2024-01-16T10:03:12;88.43;;;39.75;;
80241;SDS011;69556;45.004;7.532;2024-01-16T10:05:39;82.75;;;38.75;;
80241;SDS011;69556;45.004;7.532;2024-01-16T10:10:33;83.65;;;36.65;;
80241;SDS011;69556;45.004;7.532;2024-01-16T10:12:58;81.57;;;39.45;;
80241;SDS011;69556;45.004;7.532;2024-01-16T10:15:24;83.70;;;37.78;;
80241;SDS011;69556;45.004;7.532;2024-01-16T10:17:50;73.68;;;38.72;;
80241;SDS011;69556;45.004;7.532;2024-01-16T10:20:15;78.00;;;37.53;;
80241;SDS011;69556;45.004;7.532;2024-01-16T10:22:54;77.22;;;41.35;;
80241;SDS011;69556;45.004;7.532;2024-01-16T10:25:21;73.07;;;36.65;;
80241;SDS011;69556;45.004;7.532;2024-01-16T10:27:47;76.95;;;36.45;;
80241;SDS011;69556;45.004;7.532;2024-01-16T10:30:13;75.47;;;37.28;;
80241;SDS011;69556;45.004;7.532;2024-01-16T10:32:40;76.20;;;36.97;;
80241;SDS011;69556;45.004;7.532;2024-01-16T10:40:08;84.80;;;39.22;;
80241;SDS011;69556;45.004;7.532;2024-01-16T10:42:34;80.28;;;39.72;;
80241;SDS011;69556;45.004;7.532;2024-01-16T10:44:59;86.53;;;42.80;;
80241;SDS011;69556;45.004;7.532;2024-01-16T10:47:25;89.87;;;42.00;;
80241;SDS011;69556;45.004;7.532;2024-01-16T10:49:50;92.30;;;45.50;;
80241;SDS011;69556;45.004;7.532;2024-01-16T10:52:17;85.13;;;42.90;;
80241;SDS011;69556;45.004;7.532;2024-01-16T10:54:43;95.57;;;45.40;;
80241;SDS011;69556;45.004;7.532;2024-01-16T10:57:11;93.30;;;43.25;;
80241;SDS011;69556;45.004;7.532;2024-01-16T11:02:25;92.55;;;43.63;;
80241;SDS011;69556;45.004;7.532;2024-01-16T11:04:57;95.72;;;44.97;;
80241;SDS011;69556;45.004;7.532;2024-01-16T11:07:24;89.20;;;42.47;;
80241;SDS011;69556;45.004;7.532;2024-01-16T11:09:51;90.82;;;42.13;;
80241;SDS011;69556;45.004;7.532;2024-01-16T11:12:17;86.82;;;42.15;;
80241;SDS011;69556;45.004;7.532;2024-01-16T11:14:45;84.80;;;38.85;;
80241;SDS011;69556;45.004;7.532;2024-01-16T11:17:16;81.22;;;39.33;;
80241;SDS011;69556;45.004;7.532;2024-01-16T11:19:45;87.05;;;43.17;;
80241;SDS011;69556;45.004;7.532;2024-01-16T11:22:13;88.38;;;41.53;;
80241;SDS011;69556;45.004;7.532;2024-01-16T11:24:41;86.95;;;42.45;;
80241;SDS011;69556;45.004;7.532;2024-01-16T11:27:08;77.05;;;37.10;;
80241;SDS011;69556;45.004;7.532;2024-01-16T11:29:45;87.80;;;40.83;;
80241;SDS011;69556;45.004;7.532;2024-01-16T11:32:32;77.70;;;41.85;;
80241;SDS011;69556;45.004;7.532;2024-01-16T11:35:07;83.05;;;39.75;;
80241;SDS011;69556;45.004;7.532;2024-01-16T11:37:33;81.78;;;40.25;;
80241;SDS011;69556;45.004;7.532;2024-01-16T11:42:45;70.63;;;35.75;;
80241;SDS011;69556;45.004;7.532;2024-01-16T11:45:54;80.68;;;38.45;;
80241;SDS011;69556;45.004;7.532;2024-01-16T11:50:35;77.50;;;36.55;;
80241;SDS011;69556;45.004;7.532;2024-01-16T11:53:01;76.10;;;36.40;;
80241;SDS011;69556;45.004;7.532;2024-01-16T12:00:44;70.75;;;34.45;;
80241;SDS011;69556;45.004;7.532;2024-01-16T12:03:13;75.07;;;35.60;;
80241;SDS011;69556;45.004;7.532;2024-01-16T12:05:39;72.88;;;37.22;;
80241;SDS011;69556;45.004;7.532;2024-01-16T12:08:04;71.55;;;34.55;;
80241;SDS011;69556;45.004;7.532;2024-01-16T12:10:31;72.45;;;36.28;;
80241;SDS011;69556;45.004;7.532;2024-01-16T12:13:00;69.90;;;32.78;;
80241;SDS011;69556;45.004;7.532;2024-01-16T12:15:27;72.53;;;33.20;;
80241;SDS011;69556;45.004;7.532;2024-01-16T12:17:56;71.38;;;35.50;;
80241;SDS011;69556;45.004;7.532;2024-01-16T12:20:24;73.43;;;32.97;;
80241;SDS011;69556;45.004;7.532;2024-01-16T12:23:01;75.22;;;34.38;;
80241;SDS011;69556;45.004;7.532;2024-01-16T12:25:27;71.60;;;35.17;;
80241;SDS011;69556;45.004;7.532;2024-01-16T12:27:54;76.70;;;37.70;;
80241;SDS011;69556;45.004;7.532;2024-01-16T12:32:47;76.77;;;37.13;;
80241;SDS011;69556;45.004;7.532;2024-01-16T12:35:12;67.40;;;35.07;;
80241;SDS011;69556;45.004;7.532;2024-01-16T12:37:38;78.70;;;35.08;;
80241;SDS011;69556;45.004;7.532;2024-01-16T12:40:03;72.55;;;34.30;;
80241;SDS011;69556;45.004;7.532;2024-01-16T12:42:31;72.95;;;36.47;;
80241;SDS011;69556;45.004;7.532;2024-01-16T12:44:56;70.38;;;34.30;;
80241;SDS011;69556;45.004;7.532;2024-01-16T12:47:22;69.43;;;34.63;;
80241;SDS011;69556;45.004;7.532;2024-01-16T12:49:47;71.53;;;33.63;;
80241;SDS011;69556;45.004;7.532;2024-01-16T12:52:20;70.47;;;32.70;;
80241;SDS011;69556;45.004;7.532;2024-01-16T12:54:57;67.25;;;36.30;;
80241;SDS011;69556;45.004;7.532;2024-01-16T12:57:24;64.68;;;30.75;;
80241;SDS011;69556;45.004;7.532;2024-01-16T12:59:50;67.90;;;32.30;;
80241;SDS011;69556;45.004;7.532;2024-01-16T13:02:22;69.55;;;30.65;;
80241;SDS011;69556;45.004;7.532;2024-01-16T13:04:59;70.07;;;36.05;;
80241;SDS011;69556;45.004;7.532;2024-01-16T13:07:27;59.63;;;31.45;;
80241;SDS011;69556;45.004;7.532;2024-01-16T13:14:59;58.22;;;30.33;;
80241;SDS011;69556;45.004;7.532;2024-01-16T13:17:24;53.03;;;28.10;;
80241;SDS011;69556;45.004;7.532;2024-01-16T13:19:49;61.08;;;28.00;;
80241;SDS011;69556;45.004;7.532;2024-01-16T13:22:15;58.08;;;28.73;;
80241;SDS011;69556;45.004;7.532;2024-01-16T13:24:41;63.42;;;28.80;;
80241;SDS011;69556;45.004;7.532;2024-01-16T13:27:07;56.45;;;28.42;;
80241;SDS011;69556;45.004;7.532;2024-01-16T13:29:34;52.35;;;25.65;;
80241;SDS011;69556;45.004;7.532;2024-01-16T13:32:03;59.67;;;27.60;;
80241;SDS011;69556;45.004;7.532;2024-01-16T13:34:29;58.70;;;29.10;;
80241;SDS011;69556;45.004;7.532;2024-01-16T13:36:55;65.00;;;28.00;;
80241;SDS011;69556;45.004;7.532;2024-01-16T13:39:26;57.88;;;28.75;;
80241;SDS011;69556;45.004;7.532;2024-01-16T13:41:51;59.38;;;30.73;;
80241;SDS011;69556;45.004;7.532;2024-01-16T13:44:17;57.67;;;28.60;;
80241;SDS011;69556;45.004;7.532;2024-01-16T13:46:43;59.00;;;29.47;;
80241;SDS011;69556;45.004;7.532;2024-01-16T13:49:08;64.82;;;31.17;;
80241;SDS011;69556;45.004;7.532;2024-01-16T13:51:35;61.55;;;31.13;;
80241;SDS011;69556;45.004;7.532;2024-01-16T13:54:00;72.18;;;34.45;;
80241;SDS011;69556;45.004;7.532;2024-01-16T13:56:25;64.28;;;30.88;;
80241;SDS011;69556;45.004;7.532;2024-01-16T13:58:51;67.03;;;34.15;;
80241;SDS011;69556;45.004;7.532;2024-01-16T14:01:16;64.60;;;31.50;;
80241;SDS011;69556;45.004;7.532;2024-01-16T14:03:42;64.13;;;31.63;;
80241;SDS011;69556;45.004;7.532;2024-01-16T14:06:08;62.22;;;29.42;;
80241;SDS011;69556;45.004;7.532;2024-01-16T14:08:33;67.05;;;31.67;;
80241;SDS011;69556;45.004;7.532;2024-01-16T14:10:59;69.25;;;31.70;;
80241;SDS011;69556;45.004;7.532;2024-01-16T14:13:24;66.27;;;32.27;;
80241;SDS011;69556;45.004;7.532;2024-01-16T14:15:50;65.70;;;32.38;;
80241;SDS011;69556;45.004;7.532;2024-01-16T14:18:16;65.85;;;33.38;;
80241;SDS011;69556;45.004;7.532;2024-01-16T14:20:41;66.97;;;34.87;;
80241;SDS011;69556;45.004;7.532;2024-01-16T14:23:07;70.70;;;34.63;;
80241;SDS011;69556;45.004;7.532;2024-01-16T14:25:32;69.28;;;33.42;;
80241;SDS011;69556;45.004;7.532;2024-01-16T14:28:01;67.47;;;32.15;;
80241;SDS011;69556;45.004;7.532;2024-01-16T14:30:28;62.05;;;31.55;;
80241;SDS011;69556;45.004;7.532;2024-01-16T14:32:54;70.40;;;35.88;;
80241;SDS011;69556;45.004;7.532;2024-01-16T14:35:21;64.53;;;32.92;;
80241;SDS011;69556;45.004;7.532;2024-01-16T14:37:48;73.88;;;33.55;;
80241;SDS011;69556;45.004;7.532;2024-01-16T14:40:14;69.53;;;34.55;;
80241;SDS011;69556;45.004;7.532;2024-01-16T14:42:48;84.75;;;38.78;;
80241;SDS011;69556;45.004;7.532;2024-01-16T14:45:16;154.43;;;74.60;;